createdAt,value
2018-02-04T00:00:01.358Z,4.95
2018-02-04T00:02:29.462Z,3.90
2018-02-04T00:04:57.849Z,4.28
2018-02-04T00:07:26.310Z,4.03
2018-02-04T00:09:54.963Z,4.10
2018-02-04T00:12:23.325Z,4.75
2018-02-04T00:14:51.698Z,5.10
2018-02-04T00:17:20.041Z,5.95
2018-02-04T00:19:48.406Z,6.00
2018-02-04T00:22:28.948Z,6.43
2018-02-04T00:24:57.333Z,7.10
2018-02-04T00:27:25.709Z,7.90
2018-02-04T00:29:54.079Z,8.73
2018-02-04T00:32:22.457Z,9.68
2018-02-04T00:34:50.905Z,9.18
2018-02-04T00:37:19.307Z,9.23
2018-02-04T00:39:47.761Z,9.50
2018-02-04T00:42:16.164Z,9.70
2018-02-04T00:44:44.549Z,11.68
2018-02-04T00:47:13.211Z,12.27
2018-02-04T00:49:41.576Z,11.40
2018-02-04T00:52:09.950Z,11.32
2018-02-04T00:54:38.333Z,14.50
2018-02-04T00:57:06.726Z,15.48
2018-02-04T00:59:35.439Z,14.32
2018-02-04T01:02:03.789Z,15.07
2018-02-04T01:04:32.141Z,15.50
2018-02-04T01:07:00.540Z,14.73
2018-02-04T01:09:28.898Z,14.00
2018-02-04T01:11:57.576Z,11.57
2018-02-04T01:14:25.962Z,10.15
2018-02-04T01:16:54.366Z,12.13
2018-02-04T01:19:22.755Z,11.35
2018-02-04T01:21:51.110Z,11.38
2018-02-04T01:24:19.888Z,10.90
2018-02-04T01:26:48.241Z,10.80
2018-02-04T01:29:16.622Z,11.43
2018-02-04T01:31:45.293Z,9.23
2018-02-04T01:34:13.944Z,10.02
2018-02-04T01:36:42.711Z,10.13
2018-02-04T01:39:11.553Z,9.68
2018-02-04T01:41:40.564Z,9.82
2018-02-04T01:44:09.472Z,10.70
2018-02-04T01:46:38.075Z,10.10
2018-02-04T01:49:06.566Z,12.80
2018-02-04T01:51:34.981Z,10.60
2018-02-04T01:54:03.512Z,12.75
2018-02-04T01:56:32.049Z,13.93
2018-02-04T01:59:01.219Z,13.25
2018-02-04T02:01:29.690Z,13.32
2018-02-04T02:03:58.333Z,13.15
2018-02-04T02:06:26.776Z,15.57
2018-02-04T02:08:55.399Z,15.20
2018-02-04T02:11:24.356Z,16.12
2018-02-04T02:13:53.774Z,15.27
2018-02-04T02:16:22.323Z,15.55
2018-02-04T02:18:50.740Z,16.62
2018-02-04T02:21:19.807Z,17.12
2018-02-04T02:23:48.807Z,17.77
2018-02-04T02:26:18.375Z,17.90
2018-02-04T02:28:49.015Z,18.92
2018-02-04T02:31:17.772Z,17.42
2018-02-04T02:33:46.320Z,17.45
2018-02-04T02:36:14.951Z,20.62
2018-02-04T02:38:43.592Z,19.52
2018-02-04T02:41:12.270Z,21.10
2018-02-04T02:43:40.724Z,21.08
2018-02-04T02:46:09.604Z,20.77
2018-02-04T02:48:38.052Z,24.80
2018-02-04T02:51:06.543Z,22.70
2018-02-04T02:53:35.093Z,20.88
2018-02-04T02:56:03.877Z,21.40
2018-02-04T02:58:32.939Z,21.08
2018-02-04T03:01:01.637Z,22.62
2018-02-04T03:03:30.101Z,21.85
2018-02-04T03:05:59.005Z,20.37
2018-02-04T03:08:27.895Z,20.35
2018-02-04T03:10:56.629Z,20.67
2018-02-04T03:13:25.304Z,19.92
2018-02-04T03:15:55.063Z,20.75
2018-02-04T03:18:23.533Z,19.15
2018-02-04T03:20:52.472Z,17.55
2018-02-04T03:23:20.851Z,15.43
2018-02-04T03:25:49.295Z,15.43
2018-02-04T03:28:18.001Z,15.25
2018-02-04T03:30:46.547Z,14.40
2018-02-04T03:33:15.319Z,14.20
2018-02-04T03:35:43.827Z,14.82
2018-02-04T03:38:12.248Z,13.75
2018-02-04T03:40:40.709Z,14.55
2018-02-04T03:43:09.343Z,15.52
2018-02-04T03:45:38.307Z,13.68
2018-02-04T03:48:06.864Z,13.60
2018-02-04T03:50:35.868Z,13.25
2018-02-04T03:53:04.541Z,12.45
2018-02-04T03:55:33.727Z,12.70
2018-02-04T03:58:02.573Z,12.52
2018-02-04T04:00:33.997Z,10.80
2018-02-04T04:03:02.463Z,10.70
2018-02-04T04:05:31.158Z,11.48
2018-02-04T04:07:59.663Z,11.55
2018-02-04T04:10:28.028Z,11.82
2018-02-04T04:12:56.536Z,11.30
2018-02-04T04:15:25.132Z,10.18
2018-02-04T04:17:54.063Z,11.95
2018-02-04T04:20:22.548Z,10.98
2018-02-04T04:22:50.923Z,11.82
2018-02-04T04:25:19.599Z,12.45
2018-02-04T04:27:48.142Z,13.35
2018-02-04T04:30:17.130Z,13.27
2018-02-04T04:32:45.803Z,13.05
2018-02-04T04:35:14.246Z,13.30
2018-02-04T04:37:42.761Z,12.55
2018-02-04T04:40:11.215Z,12.85
2018-02-04T04:42:39.915Z,12.45
2018-02-04T04:45:08.370Z,14.95
2018-02-04T04:47:36.886Z,13.43
2018-02-04T04:50:05.419Z,14.10
2018-02-04T04:52:33.950Z,15.45
2018-02-04T04:55:03.211Z,13.07
2018-02-04T04:57:32.007Z,14.87
2018-02-04T05:00:01.323Z,14.50
2018-02-04T05:02:30.209Z,12.85
2018-02-04T05:04:58.642Z,14.45
2018-02-04T05:07:27.167Z,15.02
2018-02-04T05:09:56.111Z,14.65
2018-02-04T05:12:25.113Z,14.23
2018-02-04T05:14:53.722Z,14.43
2018-02-04T05:17:22.556Z,13.62
2018-02-04T05:19:51.528Z,14.30
2018-02-04T05:22:20.824Z,13.73
2018-02-04T05:24:49.477Z,14.80
2018-02-04T05:27:18.056Z,12.98
2018-02-04T05:29:46.942Z,13.38
2018-02-04T05:32:16.226Z,12.70
2018-02-04T05:34:44.790Z,12.60
2018-02-04T05:37:13.295Z,12.98
2018-02-04T05:39:42.160Z,12.60
2018-02-04T05:42:11.025Z,12.90
2018-02-04T05:44:40.522Z,13.60
2018-02-04T05:47:09.890Z,14.50
2018-02-04T05:49:38.850Z,16.05
2018-02-04T05:52:07.407Z,15.00
2018-02-04T05:54:36.132Z,13.57
2018-02-04T05:57:04.888Z,14.25
2018-02-04T05:59:33.547Z,14.90
2018-02-04T06:02:02.376Z,15.40
2018-02-04T06:04:31.872Z,15.35
2018-02-04T06:07:00.703Z,15.85
2018-02-04T06:09:29.408Z,16.20
2018-02-04T06:11:57.761Z,13.40
2018-02-04T06:14:26.131Z,15.60
2018-02-04T06:16:54.790Z,17.02
2018-02-04T06:19:23.146Z,15.20
2018-02-04T06:21:51.528Z,14.27
2018-02-04T06:24:19.908Z,13.55
2018-02-04T06:26:48.266Z,14.00
2018-02-04T06:29:17.582Z,15.40
2018-02-04T06:31:45.946Z,15.13
2018-02-04T06:34:14.377Z,13.65
2018-02-04T06:36:42.766Z,15.30
2018-02-04T06:39:11.142Z,14.80
2018-02-04T06:41:39.498Z,14.40
2018-02-04T06:44:07.865Z,14.48
2018-02-04T06:46:36.519Z,14.30
2018-02-04T06:49:04.930Z,13.77
2018-02-04T06:51:33.288Z,14.15
2018-02-04T06:54:01.775Z,14.35
2018-02-04T06:56:30.134Z,13.23
2018-02-04T06:58:58.808Z,13.38
2018-02-04T07:01:27.187Z,13.30
2018-02-04T07:03:55.599Z,12.30
2018-02-04T07:06:23.981Z,12.93
2018-02-04T07:08:52.376Z,12.43
2018-02-04T07:11:21.062Z,14.10
2018-02-04T07:13:49.495Z,14.15
2018-02-04T07:16:17.908Z,14.82
2018-02-04T07:18:46.301Z,13.60
2018-02-04T07:21:14.700Z,13.30
2018-02-04T07:23:43.413Z,13.68
2018-02-04T07:26:11.835Z,13.40
2018-02-04T07:28:40.251Z,13.23
2018-02-04T07:31:08.610Z,13.32
2018-02-04T07:33:36.999Z,12.48
2018-02-04T07:36:05.788Z,13.25
2018-02-04T07:38:34.208Z,14.02
2018-02-04T07:41:02.591Z,12.65
2018-02-04T07:43:30.992Z,12.85
2018-02-04T07:45:59.403Z,12.30
2018-02-04T07:48:28.120Z,13.40
2018-02-04T07:50:56.539Z,12.55
2018-02-04T07:53:24.931Z,12.82
2018-02-04T07:55:53.329Z,12.27
2018-02-04T07:58:21.740Z,14.10
2018-02-04T08:00:50.291Z,12.23
2018-02-04T08:03:18.664Z,12.57
2018-02-04T08:05:47.041Z,11.43
2018-02-04T08:08:15.444Z,10.15
2018-02-04T08:10:43.860Z,11.43
2018-02-04T08:13:12.286Z,10.88
2018-02-04T08:15:40.769Z,12.35
2018-02-04T08:18:09.159Z,10.50
2018-02-04T08:20:37.661Z,10.93
2018-02-04T08:23:06.017Z,11.93
2018-02-04T08:25:34.487Z,12.63
2018-02-04T08:28:02.946Z,11.50
2018-02-04T08:30:31.422Z,13.82
2018-02-04T08:32:59.823Z,11.60
2018-02-04T08:35:28.225Z,11.93
2018-02-04T08:37:56.686Z,10.88
2018-02-04T08:40:25.165Z,10.65
2018-02-04T08:42:53.509Z,12.20
2018-02-04T08:45:21.927Z,12.65
2018-02-04T08:47:51.207Z,13.25
2018-02-04T08:50:19.660Z,12.32
2018-02-04T08:52:48.059Z,12.68
2018-02-04T08:55:16.469Z,12.18
2018-02-04T08:57:44.863Z,14.20
2018-02-04T09:00:13.241Z,11.60
2018-02-04T09:02:41.771Z,12.35
2018-02-04T09:05:10.173Z,11.52
2018-02-04T09:07:38.708Z,11.82
2018-02-04T09:10:07.133Z,11.35
2018-02-04T09:12:35.635Z,11.45
2018-02-04T09:15:04.651Z,10.07
2018-02-04T09:17:33.043Z,10.25
2018-02-04T09:20:01.448Z,11.57
2018-02-04T09:22:29.934Z,10.75
2018-02-04T09:24:58.334Z,10.52
2018-02-04T09:27:27.049Z,10.90
2018-02-04T09:29:55.599Z,12.18
2018-02-04T09:32:23.991Z,9.20
2018-02-04T09:34:52.468Z,9.90
2018-02-04T09:37:20.866Z,9.38
2018-02-04T09:39:50.433Z,9.57
2018-02-04T09:42:18.847Z,9.80
2018-02-04T09:44:47.237Z,9.30
2018-02-04T09:47:15.639Z,10.82
2018-02-04T09:49:44.002Z,9.35
2018-02-04T09:52:12.482Z,9.60
2018-02-04T09:54:40.885Z,9.95
2018-02-04T09:57:09.320Z,8.45
2018-02-04T09:59:37.696Z,9.10
2018-02-04T10:02:06.089Z,9.45
2018-02-04T10:04:34.573Z,10.10
2018-02-04T10:07:02.975Z,9.20
2018-02-04T10:09:31.380Z,10.82
2018-02-04T10:11:59.847Z,10.13
2018-02-04T10:14:28.247Z,9.98
2018-02-04T10:16:56.654Z,9.57
2018-02-04T10:19:25.045Z,9.65
2018-02-04T10:21:53.434Z,8.85
2018-02-04T10:24:21.847Z,9.57
2018-02-04T10:26:50.246Z,9.50
2018-02-04T10:29:18.962Z,9.82
2018-02-04T10:31:47.333Z,9.30
2018-02-04T10:34:15.692Z,9.80
2018-02-04T10:36:44.167Z,10.10
2018-02-04T10:39:12.545Z,8.20
2018-02-04T10:41:41.237Z,12.82
2018-02-04T10:44:09.647Z,9.35
2018-02-04T10:46:38.048Z,8.82
2018-02-04T10:49:06.446Z,9.35
2018-02-04T10:51:40.412Z,8.43
2018-02-04T10:54:08.772Z,7.22
2018-02-04T10:56:37.160Z,8.23
2018-02-04T10:59:05.625Z,8.00
2018-02-04T11:01:34.028Z,8.48
2018-02-04T11:04:03.397Z,8.77
2018-02-04T11:06:31.794Z,7.40
2018-02-04T11:09:00.268Z,8.18
2018-02-04T11:11:30.866Z,8.57
2018-02-04T11:13:59.323Z,8.20
2018-02-04T11:16:27.722Z,7.72
2018-02-04T11:18:56.133Z,8.05
2018-02-04T11:21:24.530Z,8.02
2018-02-04T11:23:53.203Z,7.28
2018-02-04T11:26:22.291Z,7.37
2018-02-04T11:28:51.045Z,7.55
2018-02-04T11:31:19.709Z,7.40
2018-02-04T11:33:48.617Z,7.75
2018-02-04T11:36:17.729Z,7.40
2018-02-04T11:38:46.197Z,7.68
2018-02-04T11:41:14.714Z,6.70
2018-02-04T11:43:43.484Z,7.25
2018-02-04T11:46:12.597Z,8.48
2018-02-04T11:48:41.400Z,7.20
2018-02-04T11:51:10.012Z,8.35
2018-02-04T11:53:38.484Z,7.35
2018-02-04T11:56:07.289Z,7.45
2018-02-04T11:58:35.845Z,8.02
2018-02-04T12:01:04.711Z,7.43
2018-02-04T12:03:33.461Z,7.28
2018-02-04T12:06:01.899Z,7.65
2018-02-04T12:08:30.651Z,7.57
2018-02-04T12:10:59.502Z,7.40
2018-02-04T12:13:28.617Z,7.75
2018-02-04T12:15:57.692Z,6.90
2018-02-04T12:18:26.459Z,7.60
2018-02-04T12:20:55.187Z,8.10
2018-02-04T12:23:23.991Z,7.03
2018-02-04T12:25:53.106Z,6.82
2018-02-04T12:28:21.866Z,6.87
2018-02-04T12:30:50.448Z,7.40
2018-02-04T12:33:18.937Z,7.43
2018-02-04T12:35:47.379Z,6.57
2018-02-04T12:38:15.991Z,7.07
2018-02-04T12:40:44.476Z,8.23
2018-02-04T12:43:12.895Z,7.50
2018-02-04T12:45:41.303Z,6.68
2018-02-04T12:48:09.774Z,7.57
2018-02-04T12:50:38.492Z,8.07
2018-02-04T12:53:06.892Z,8.02
2018-02-04T12:55:35.260Z,7.60
2018-02-04T12:58:03.999Z,6.85
2018-02-04T13:00:32.405Z,7.57
2018-02-04T13:03:00.868Z,7.68
2018-02-04T13:05:29.978Z,8.18
2018-02-04T13:07:58.467Z,7.32
2018-02-04T13:10:26.889Z,7.95
2018-02-04T13:12:55.278Z,8.23
2018-02-04T13:15:24.059Z,7.78
2018-02-04T13:17:52.456Z,7.55
2018-02-04T13:20:20.855Z,8.98
2018-02-04T13:22:49.234Z,7.78
2018-02-04T13:25:17.641Z,7.87
2018-02-04T13:27:46.268Z,7.40
2018-02-04T13:30:14.695Z,7.10
2018-02-04T13:32:43.371Z,6.80
2018-02-04T13:35:11.853Z,8.77
2018-02-04T13:37:40.305Z,9.15
2018-02-04T13:40:08.772Z,8.77
2018-02-04T13:42:37.164Z,7.97
2018-02-04T13:45:05.534Z,7.22
2018-02-04T13:47:33.920Z,7.28
2018-02-04T13:50:02.330Z,7.60
2018-02-04T13:52:30.877Z,7.15
2018-02-04T13:54:59.259Z,7.75
2018-02-04T13:57:27.834Z,7.80
2018-02-04T13:59:56.189Z,7.22
2018-02-04T14:02:24.581Z,7.35
2018-02-04T14:04:53.259Z,7.65
2018-02-04T14:07:21.646Z,8.20
2018-02-04T14:09:50.057Z,9.02
2018-02-04T14:12:18.451Z,8.35
2018-02-04T14:14:46.831Z,7.95
2018-02-04T14:17:15.359Z,7.60
2018-02-04T14:19:43.725Z,8.15
2018-02-04T14:22:12.192Z,7.90
2018-02-04T14:24:40.586Z,7.37
2018-02-04T14:27:09.206Z,9.32
2018-02-04T14:29:39.568Z,8.00
2018-02-04T14:32:08.070Z,7.80
2018-02-04T14:34:36.471Z,7.50
2018-02-04T14:37:04.859Z,7.45
2018-02-04T14:39:33.223Z,7.72
2018-02-04T14:42:01.979Z,7.45
2018-02-04T14:44:30.455Z,7.95
2018-02-04T14:46:58.849Z,8.55
2018-02-04T14:49:27.214Z,8.00
2018-02-04T14:51:55.588Z,11.80
2018-02-04T14:54:24.302Z,7.55
2018-02-04T14:56:52.718Z,7.75
2018-02-04T14:59:21.104Z,7.10
2018-02-04T15:01:49.466Z,7.03
2018-02-04T15:04:17.832Z,7.05
2018-02-04T15:06:46.275Z,6.72
2018-02-04T15:09:14.628Z,6.65
2018-02-04T15:11:43.005Z,7.30
2018-02-04T15:14:11.401Z,7.25
2018-02-04T15:16:39.819Z,8.20
2018-02-04T15:19:08.245Z,7.45
2018-02-04T15:21:36.671Z,7.22
2018-02-04T15:24:05.073Z,6.55
2018-02-04T15:26:33.487Z,6.10
2018-02-04T15:29:01.874Z,6.07
2018-02-04T15:31:30.578Z,6.62
2018-02-04T15:33:58.965Z,6.57
2018-02-04T15:36:27.440Z,6.07
2018-02-04T15:38:55.792Z,6.97
2018-02-04T15:41:24.270Z,7.28
2018-02-04T15:43:52.979Z,6.70
2018-02-04T15:46:21.395Z,5.90
2018-02-04T15:48:49.938Z,6.28
2018-02-04T15:51:18.317Z,5.62
2018-02-04T15:53:47.452Z,6.70
2018-02-04T15:56:16.240Z,5.87
2018-02-04T15:58:44.593Z,6.32
2018-02-04T16:01:12.939Z,5.28
2018-02-04T16:03:41.300Z,5.65
2018-02-04T16:06:09.675Z,5.75
2018-02-04T16:08:38.476Z,5.68
2018-02-04T16:11:06.947Z,5.72
2018-02-04T16:13:35.313Z,6.57
2018-02-04T16:16:03.788Z,7.53
2018-02-04T16:18:32.171Z,8.10
2018-02-04T16:21:00.635Z,7.03
2018-02-04T16:23:29.056Z,7.72
2018-02-04T16:25:57.579Z,7.35
2018-02-04T16:28:25.989Z,7.75
2018-02-04T16:30:54.367Z,8.20
2018-02-04T16:33:22.845Z,8.10
2018-02-04T16:35:51.214Z,8.27
2018-02-04T16:38:19.618Z,8.90
2018-02-04T16:40:48.019Z,8.27
2018-02-04T16:43:16.394Z,8.13
2018-02-04T16:45:45.112Z,8.55
2018-02-04T16:48:13.469Z,8.25
2018-02-04T16:50:41.863Z,8.70
2018-02-04T16:53:10.255Z,8.05
2018-02-04T16:55:38.615Z,9.10
2018-02-04T16:58:07.286Z,9.10
2018-02-04T17:00:35.678Z,8.43
2018-02-04T17:03:04.063Z,8.80
2018-02-04T17:05:32.482Z,9.20
2018-02-04T17:08:00.852Z,7.90
2018-02-04T17:10:29.567Z,8.68
2018-02-04T17:12:58.027Z,9.10
2018-02-04T17:15:26.431Z,10.50
2018-02-04T17:17:54.833Z,10.25
2018-02-04T17:20:23.217Z,9.02
2018-02-04T17:22:51.973Z,10.27
2018-02-04T17:25:20.357Z,9.55
2018-02-04T17:27:48.728Z,9.00
2018-02-04T17:30:17.103Z,10.15
2018-02-04T17:32:45.494Z,9.68
2018-02-04T17:35:14.270Z,10.02
2018-02-04T17:37:42.688Z,9.95
2018-02-04T17:40:11.010Z,10.45
2018-02-04T17:42:39.366Z,10.98
2018-02-04T17:45:07.726Z,9.70
2018-02-04T17:47:36.158Z,10.02
2018-02-04T17:50:05.475Z,10.77
2018-02-04T17:52:33.861Z,11.10
2018-02-04T17:55:02.289Z,10.75
2018-02-04T17:57:31.597Z,9.43
2018-02-04T18:00:00.266Z,10.25
2018-02-04T18:02:28.729Z,9.82
2018-02-04T18:04:57.123Z,11.38
2018-02-04T18:07:25.512Z,11.65
2018-02-04T18:09:53.866Z,11.10
2018-02-04T18:12:22.583Z,10.40
2018-02-04T18:14:50.943Z,11.05
2018-02-04T18:17:19.345Z,11.75
2018-02-04T18:19:47.754Z,12.95
2018-02-04T18:22:16.155Z,12.20
2018-02-04T18:24:44.787Z,13.43
2018-02-04T18:27:13.174Z,12.20
2018-02-04T18:29:41.535Z,11.93
2018-02-04T18:32:09.960Z,11.82
2018-02-04T18:34:38.329Z,13.38
2018-02-04T18:37:07.327Z,12.75
2018-02-04T18:39:35.712Z,12.02
2018-02-04T18:42:04.073Z,12.60
2018-02-04T18:44:32.436Z,11.73
2018-02-04T18:47:00.792Z,13.13
2018-02-04T18:49:29.229Z,13.48
2018-02-04T18:51:57.723Z,11.95
2018-02-04T18:54:26.077Z,11.93
2018-02-04T18:56:54.431Z,12.63
2018-02-04T18:59:22.793Z,13.13
2018-02-04T19:01:51.537Z,11.38
2018-02-04T19:04:19.904Z,12.07
2018-02-04T19:06:48.387Z,13.48
2018-02-04T19:09:16.738Z,13.02
2018-02-04T19:11:45.143Z,13.00
2018-02-04T19:14:13.922Z,13.65
2018-02-04T19:16:42.516Z,13.35
2018-02-04T19:19:10.991Z,14.10
2018-02-04T19:21:39.370Z,12.98
2018-02-04T19:24:07.758Z,12.48
2018-02-04T19:26:36.197Z,13.65
2018-02-04T19:29:04.568Z,13.27
2018-02-04T19:31:32.931Z,11.63
2018-02-04T19:34:01.327Z,11.23
2018-02-04T19:36:29.702Z,12.25
2018-02-04T19:38:58.147Z,12.35
2018-02-04T19:41:26.597Z,12.23
2018-02-04T19:43:55.009Z,12.02
2018-02-04T19:46:23.430Z,15.98
2018-02-04T19:48:51.775Z,13.18
2018-02-04T19:51:20.225Z,13.88
2018-02-04T19:53:48.582Z,12.90
2018-02-04T19:56:16.951Z,11.75
2018-02-04T19:58:45.424Z,11.77
2018-02-04T20:01:13.788Z,13.02
2018-02-04T20:03:42.472Z,12.52
2018-02-04T20:06:10.905Z,11.40
2018-02-04T20:08:39.279Z,12.10
2018-02-04T20:11:07.706Z,11.82
2018-02-04T20:13:36.096Z,12.43
2018-02-04T20:16:04.515Z,12.25
2018-02-04T20:18:32.870Z,13.00
2018-02-04T20:21:01.320Z,12.88
2018-02-04T20:23:29.666Z,13.77
2018-02-04T20:25:58.151Z,11.77
2018-02-04T20:28:26.553Z,11.45
2018-02-04T20:30:54.951Z,12.15
2018-02-04T20:33:23.318Z,13.68
2018-02-04T20:35:51.684Z,13.27
2018-02-04T20:38:20.056Z,12.63
2018-02-04T20:40:48.720Z,12.90
2018-02-04T20:43:17.086Z,12.88
2018-02-04T20:45:45.434Z,11.68
2018-02-04T20:48:13.817Z,12.40
2018-02-04T20:50:42.190Z,13.05
2018-02-04T20:53:10.878Z,13.02
2018-02-04T20:55:39.250Z,14.27
2018-02-04T20:58:07.610Z,13.40
2018-02-04T21:00:35.958Z,13.48
2018-02-04T21:03:04.329Z,14.00
2018-02-04T21:05:33.011Z,13.05
2018-02-04T21:08:01.371Z,13.20
2018-02-04T21:10:29.727Z,14.30
2018-02-04T21:12:58.072Z,13.85
2018-02-04T21:15:26.436Z,11.65
2018-02-04T21:17:55.133Z,13.15
2018-02-04T21:20:23.500Z,9.95
2018-02-04T21:22:51.845Z,13.73
2018-02-04T21:25:20.201Z,13.62
2018-02-04T21:27:48.571Z,12.75
2018-02-04T21:30:17.217Z,12.70
2018-02-04T21:32:45.577Z,12.90
2018-02-04T21:35:14.054Z,13.57
2018-02-04T21:37:42.530Z,14.30
2018-02-04T21:40:10.899Z,13.60
2018-02-04T21:42:39.248Z,13.52
2018-02-04T21:45:07.594Z,14.50
2018-02-04T21:47:36.293Z,13.25
2018-02-04T21:50:04.716Z,12.93
2018-02-04T21:52:33.165Z,13.20
2018-02-04T21:55:01.544Z,13.02
2018-02-04T21:57:29.891Z,12.82
2018-02-04T21:59:58.599Z,12.98
2018-02-04T22:02:26.972Z,13.50
2018-02-04T22:04:55.402Z,12.80
2018-02-04T22:07:23.757Z,11.88
2018-02-04T22:09:52.326Z,13.25
2018-02-04T22:12:20.753Z,13.48
2018-02-04T22:14:49.107Z,13.75
2018-02-04T22:17:17.467Z,15.85
2018-02-04T22:19:45.830Z,14.20
2018-02-04T22:22:14.206Z,14.00
2018-02-04T22:24:42.899Z,14.38
2018-02-04T22:27:11.237Z,12.57
2018-02-04T22:29:39.589Z,13.70
2018-02-04T22:32:07.993Z,13.50
2018-02-04T22:34:36.348Z,14.93
2018-02-04T22:37:04.917Z,13.88
2018-02-04T22:39:33.274Z,12.13
2018-02-04T22:42:01.627Z,14.65
2018-02-04T22:44:29.979Z,12.88
2018-02-04T22:46:58.342Z,14.48
2018-02-04T22:49:26.719Z,13.60
2018-02-04T22:51:55.103Z,14.55
2018-02-04T22:54:23.580Z,15.63
2018-02-04T22:56:51.947Z,13.65
2018-02-04T22:59:20.311Z,12.90
2018-02-04T23:01:48.661Z,13.48
2018-02-04T23:04:17.013Z,12.80
2018-02-04T23:06:45.448Z,11.65
2018-02-04T23:09:13.798Z,14.40
2018-02-04T23:11:42.173Z,13.90
2018-02-04T23:14:10.547Z,13.27
2018-02-04T23:16:38.916Z,14.13
2018-02-04T23:19:07.268Z,13.57
2018-02-04T23:21:35.614Z,14.57
2018-02-04T23:24:03.964Z,12.90
2018-02-04T23:26:32.326Z,13.75
2018-02-04T23:29:00.684Z,13.07
2018-02-04T23:31:29.051Z,14.02
2018-02-04T23:33:57.408Z,13.40
2018-02-04T23:36:25.753Z,13.40
2018-02-04T23:38:54.128Z,14.50
2018-02-04T23:41:22.493Z,14.87
2018-02-04T23:43:50.882Z,15.15
2018-02-04T23:46:19.226Z,13.18
2018-02-04T23:48:47.567Z,14.85
2018-02-04T23:51:16.281Z,16.48
2018-02-04T23:53:44.704Z,13.95
2018-02-04T23:56:13.066Z,15.35
2018-02-04T23:58:41.560Z,15.32
